createdAt,value
2024-01-12T00:01:20.430Z,35.20
2024-01-12T00:05:23.342Z,34.70
2024-01-12T00:09:25.475Z,34.10
2024-01-12T00:13:27.110Z,38.00
2024-01-12T00:17:32.195Z,40.83
2024-01-12T00:21:34.426Z,35.03
2024-01-12T00:25:36.388Z,38.57
2024-01-12T00:29:38.585Z,34.17
2024-01-12T00:33:40.377Z,33.57
2024-01-12T00:37:42.209Z,35.50
2024-01-12T00:41:45.588Z,38.43
2024-01-12T00:45:47.384Z,36.40
2024-01-12T00:49:50.247Z,33.07
2024-01-12T00:53:52.214Z,36.03
2024-01-12T00:57:56.021Z,34.53
2024-01-12T01:01:59.676Z,35.97
2024-01-12T01:06:01.178Z,39.23
2024-01-12T01:10:04.949Z,37.63
2024-01-12T01:14:06.456Z,38.33
2024-01-12T01:18:08.284Z,42.70
2024-01-12T01:22:09.865Z,43.87
2024-01-12T01:26:12.675Z,38.47
2024-01-12T01:30:15.949Z,36.00
2024-01-12T01:34:17.804Z,37.70
2024-01-12T01:38:19.654Z,45.83
2024-01-12T01:42:21.371Z,45.60
2024-01-12T01:46:24.077Z,36.50
2024-01-12T01:50:27.355Z,36.40
2024-01-12T01:54:29.407Z,41.90
2024-01-12T01:58:32.426Z,44.77
2024-01-12T02:02:34.588Z,35.37
2024-01-12T02:06:36.482Z,37.20
2024-01-12T02:10:38.300Z,36.63
2024-01-12T02:14:40.206Z,37.23
2024-01-12T02:18:41.844Z,37.40
2024-01-12T02:22:43.577Z,43.87
2024-01-12T02:26:45.747Z,40.87
2024-01-12T02:30:48.357Z,40.63
2024-01-12T02:34:58.192Z,39.47
2024-01-12T02:39:01.347Z,40.37
2024-01-12T02:43:07.641Z,39.57
2024-01-12T02:47:10.127Z,41.13
2024-01-12T02:51:11.603Z,39.37
2024-01-12T02:55:13.398Z,40.50
2024-01-12T02:59:16.364Z,40.03
2024-01-12T03:03:20.335Z,41.53
2024-01-12T03:07:22.127Z,43.97
2024-01-12T03:11:24.029Z,42.47
2024-01-12T03:15:25.811Z,44.43
2024-01-12T03:19:27.367Z,44.83
2024-01-12T03:23:29.198Z,48.77
2024-01-12T03:27:30.625Z,54.93
2024-01-12T03:31:34.273Z,58.60
2024-01-12T03:35:37.988Z,62.40
2024-01-12T03:39:41.560Z,67.70
2024-01-12T03:43:44.059Z,71.37
2024-01-12T03:47:46.619Z,72.43
2024-01-12T03:51:55.255Z,71.40
2024-01-12T03:55:56.920Z,74.10
2024-01-12T03:59:58.584Z,68.87
2024-01-12T04:04:00.491Z,72.57
2024-01-12T04:08:06.494Z,70.67
2024-01-12T04:12:08.669Z,69.00
2024-01-12T04:16:10.240Z,68.03
2024-01-12T04:20:13.204Z,67.47
2024-01-12T04:24:14.606Z,67.37
2024-01-12T04:28:16.315Z,67.80
2024-01-12T04:32:20.243Z,72.20
2024-01-12T04:36:25.068Z,64.13
2024-01-12T04:40:28.067Z,69.00
2024-01-12T04:44:29.882Z,67.83
2024-01-12T04:48:33.459Z,74.37
2024-01-12T04:52:36.557Z,69.57
2024-01-12T04:56:38.279Z,70.87
2024-01-12T05:00:40.155Z,68.60
2024-01-12T05:04:41.677Z,77.40
2024-01-12T05:08:44.341Z,72.23
2024-01-12T05:12:47.191Z,75.90
2024-01-12T05:16:50.040Z,83.20
2024-01-12T05:20:51.646Z,84.03
2024-01-12T05:24:53.175Z,81.53
2024-01-12T05:28:56.149Z,84.83
2024-01-12T05:32:57.686Z,81.73
2024-01-12T05:37:02.185Z,92.03
2024-01-12T05:41:04.051Z,93.40
2024-01-12T05:45:08.176Z,99.47
2024-01-12T05:49:10.433Z,101.17
2024-01-12T05:53:12.480Z,103.87
2024-01-12T05:57:14.242Z,101.73
2024-01-12T06:01:15.857Z,100.00
2024-01-12T06:05:18.373Z,106.53
2024-01-12T06:09:20.899Z,104.27
2024-01-12T06:13:23.157Z,103.03
2024-01-12T06:17:24.994Z,93.77
2024-01-12T06:21:27.124Z,95.60
2024-01-12T06:25:30.929Z,108.80
2024-01-12T06:29:32.826Z,106.07
2024-01-12T06:33:35.640Z,101.77
2024-01-12T06:37:38.567Z,101.13
2024-01-12T06:41:48.051Z,103.10
2024-01-12T06:45:51.290Z,98.50
2024-01-12T06:49:53.001Z,93.27
2024-01-12T07:02:08.655Z,94.17
2024-01-12T07:06:11.073Z,97.97
2024-01-12T07:10:12.741Z,85.07
2024-01-12T07:14:15.867Z,91.10
2024-01-12T07:18:21.302Z,75.87
2024-01-12T07:22:22.849Z,74.03
2024-01-12T07:26:24.808Z,61.70
2024-01-12T07:30:26.859Z,61.73
2024-01-12T07:34:30.810Z,76.60
2024-01-12T07:38:32.955Z,46.67
2024-01-12T07:42:36.053Z,78.03
2024-01-12T07:46:37.919Z,84.53
2024-01-12T07:50:41.477Z,77.63
2024-01-12T07:54:44.561Z,83.03
2024-01-12T07:58:49.029Z,53.63
2024-01-12T08:02:55.997Z,62.40
2024-01-12T08:06:57.982Z,61.67
2024-01-12T08:10:59.849Z,79.53
2024-01-12T08:15:02.223Z,67.47
2024-01-12T08:19:04.115Z,55.80
2024-01-12T08:23:06.007Z,55.97
2024-01-12T08:27:07.544Z,66.97
2024-01-12T08:31:09.678Z,56.27
2024-01-12T08:35:11.332Z,49.23
2024-01-12T08:39:13.928Z,64.93
2024-01-12T08:43:15.646Z,78.37
2024-01-12T08:47:23.137Z,72.70
2024-01-12T08:51:24.930Z,62.03
2024-01-12T08:55:27.611Z,62.40
2024-01-12T08:59:30.006Z,57.97
2024-01-12T09:03:31.811Z,53.53
2024-01-12T09:07:33.721Z,52.57
2024-01-12T09:11:36.018Z,55.30
2024-01-12T09:15:37.499Z,57.33
2024-01-12T09:19:39.146Z,54.07
2024-01-12T09:23:42.598Z,48.37
2024-01-12T09:27:44.093Z,57.03
2024-01-12T09:31:45.696Z,49.67
2024-01-12T09:35:47.352Z,55.17
2024-01-12T09:39:49.843Z,54.10
2024-01-12T09:43:56.566Z,54.30
2024-01-12T09:48:01.293Z,51.00
2024-01-12T09:52:04.359Z,46.97
2024-01-12T09:56:08.442Z,45.30
2024-01-12T10:00:14.727Z,42.57
2024-01-12T10:04:17.426Z,45.43
2024-01-12T10:08:19.077Z,43.90
2024-01-12T10:12:20.823Z,42.73
2024-01-12T10:16:25.044Z,43.73
2024-01-12T10:20:28.697Z,39.37
2024-01-12T10:24:32.241Z,40.67
2024-01-12T10:28:34.424Z,38.53
2024-01-12T10:32:37.110Z,40.63
2024-01-12T10:36:40.118Z,47.87
2024-01-12T10:40:43.241Z,37.00
2024-01-12T10:44:55.180Z,46.03
2024-01-12T10:49:07.372Z,39.73
2024-01-12T10:53:19.134Z,48.17
2024-01-12T10:57:21.204Z,46.13
2024-01-12T11:01:25.785Z,49.57
2024-01-12T11:05:30.523Z,51.50
2024-01-12T11:09:32.777Z,57.03
2024-01-12T11:13:35.295Z,54.47
2024-01-12T11:17:38.414Z,47.90
2024-01-12T11:21:41.973Z,50.20
2024-01-12T11:25:45.156Z,51.90
2024-01-12T11:29:53.969Z,54.27
2024-01-12T11:34:02.379Z,57.40
2024-01-12T11:38:10.224Z,64.57
2024-01-12T11:42:12.413Z,57.27
2024-01-12T11:46:15.183Z,61.60
2024-01-12T11:50:21.720Z,63.33
2024-01-12T11:54:24.546Z,61.90
2024-01-12T11:58:31.416Z,58.80
2024-01-12T12:02:36.831Z,57.53
2024-01-12T12:06:38.655Z,64.00
2024-01-12T12:10:44.064Z,57.80
2024-01-12T12:14:58.747Z,54.43
2024-01-12T12:19:02.082Z,58.73
2024-01-12T12:23:05.395Z,57.27
2024-01-12T12:27:08.572Z,55.20
2024-01-12T12:31:12.189Z,53.57
2024-01-12T12:35:15.580Z,50.00
2024-01-12T12:39:21.234Z,53.83
2024-01-12T12:43:23.658Z,52.67
2024-01-12T12:47:28.618Z,50.20
2024-01-12T12:51:31.299Z,45.60
2024-01-12T12:55:32.818Z,44.33
2024-01-12T12:59:37.096Z,49.37
2024-01-12T13:03:39.211Z,43.40
2024-01-12T13:07:41.405Z,45.53
2024-01-12T13:11:43.223Z,43.37
2024-01-12T13:15:44.867Z,46.20
2024-01-12T13:19:46.410Z,43.83
2024-01-12T13:23:48.058Z,42.07
2024-01-12T13:27:49.539Z,48.50
2024-01-12T13:31:51.465Z,42.20
2024-01-12T13:35:54.948Z,42.60
2024-01-12T13:40:00.055Z,44.63
2024-01-12T13:44:04.908Z,51.83
2024-01-12T13:48:11.068Z,43.43
2024-01-12T13:52:13.698Z,48.60
2024-01-12T13:56:15.619Z,52.60
2024-01-12T14:00:29.407Z,45.53
2024-01-12T14:04:32.566Z,54.00
2024-01-12T14:08:38.508Z,56.97
2024-01-12T14:12:41.023Z,52.20
2024-01-12T14:16:43.044Z,55.83
2024-01-12T14:20:44.506Z,55.70
2024-01-12T14:24:51.095Z,67.23
2024-01-12T14:28:55.862Z,56.37
2024-01-12T14:32:58.751Z,53.73
2024-01-12T14:37:00.551Z,54.87
2024-01-12T14:41:02.247Z,46.00
2024-01-12T14:45:06.466Z,40.60
2024-01-12T14:49:12.092Z,44.20
2024-01-12T14:53:14.021Z,43.07
2024-01-12T14:57:17.656Z,44.63
2024-01-12T15:01:20.079Z,44.47
2024-01-12T15:05:24.297Z,43.53
2024-01-12T15:09:26.246Z,41.53
2024-01-12T15:13:29.222Z,35.97
2024-01-12T15:17:31.819Z,42.70
2024-01-12T15:21:34.932Z,43.37
2024-01-12T15:25:36.770Z,44.40
2024-01-12T15:29:38.375Z,43.57
2024-01-12T15:33:46.155Z,45.67
2024-01-12T15:37:48.100Z,39.57
2024-01-12T15:41:54.524Z,38.10
2024-01-12T15:45:56.809Z,38.70
2024-01-12T15:49:58.484Z,42.97
2024-01-12T15:54:01.035Z,44.40
2024-01-12T15:58:04.305Z,47.80
2024-01-12T16:02:06.665Z,45.07
2024-01-12T16:06:09.639Z,44.27
2024-01-12T16:10:11.340Z,41.83
2024-01-12T16:14:13.344Z,48.50
2024-01-12T16:18:17.693Z,49.03
2024-01-12T16:22:19.391Z,56.57
2024-01-12T16:26:22.795Z,52.73
2024-01-12T16:30:25.998Z,51.73
2024-01-12T16:34:27.884Z,54.80
2024-01-12T16:38:30.263Z,52.97
2024-01-12T16:42:31.825Z,53.30
2024-01-12T16:46:33.480Z,55.07
2024-01-12T16:50:36.135Z,49.00
2024-01-12T16:54:37.602Z,53.23
2024-01-12T16:58:42.525Z,51.33
2024-01-12T17:02:45.479Z,57.10
2024-01-12T17:06:53.608Z,48.17
2024-01-12T17:10:56.101Z,50.77
2024-01-12T17:14:57.807Z,60.03
2024-01-12T17:19:00.251Z,51.63
2024-01-12T17:23:01.951Z,51.60
2024-01-12T17:27:07.379Z,56.40
2024-01-12T17:31:10.147Z,52.97
2024-01-12T17:35:13.289Z,56.00
2024-01-12T17:39:18.866Z,59.47
2024-01-12T17:43:22.169Z,65.83
2024-01-12T17:47:23.982Z,64.90
2024-01-12T17:51:27.042Z,64.20
2024-01-12T17:55:29.921Z,61.63
2024-01-12T17:59:35.249Z,58.60
2024-01-12T18:03:36.803Z,62.90
2024-01-12T18:07:40.717Z,59.87
2024-01-12T18:11:45.313Z,56.03
2024-01-12T18:15:49.929Z,54.73
2024-01-12T18:19:51.857Z,63.77
2024-01-12T18:23:54.970Z,60.67
2024-01-12T18:27:56.733Z,56.20
2024-01-12T18:32:00.959Z,55.73
2024-01-12T18:36:03.345Z,58.33
2024-01-12T18:40:05.553Z,59.17
2024-01-12T18:44:07.003Z,54.50
2024-01-12T18:48:08.786Z,59.30
2024-01-12T18:52:12.261Z,55.57
2024-01-12T18:56:17.380Z,66.00
2024-01-12T19:00:19.563Z,59.63
2024-01-12T19:04:26.314Z,67.17
2024-01-12T19:08:31.490Z,67.43
2024-01-12T19:12:32.971Z,66.77
2024-01-12T19:16:36.115Z,62.07
2024-01-12T19:20:39.832Z,68.43
2024-01-12T19:24:49.996Z,64.90
2024-01-12T19:28:51.868Z,60.53
2024-01-12T19:32:53.584Z,59.97
2024-01-12T19:37:00.110Z,57.40
2024-01-12T19:41:03.012Z,61.27
2024-01-12T19:45:13.275Z,62.53
2024-01-12T19:49:16.228Z,62.87
2024-01-12T19:53:20.936Z,61.03
2024-01-12T19:57:23.836Z,66.47
2024-01-12T20:01:31.489Z,65.10
2024-01-12T20:05:35.589Z,62.40
2024-01-12T20:09:42.831Z,70.10
2024-01-12T20:13:44.357Z,63.67
2024-01-12T20:17:46.439Z,60.40
2024-01-12T20:21:49.453Z,59.57
2024-01-12T20:25:51.810Z,57.23
2024-01-12T20:29:53.742Z,57.00
2024-01-12T20:33:55.476Z,56.47
2024-01-12T20:37:57.046Z,57.77
2024-01-12T20:42:05.339Z,47.83
2024-01-12T20:46:07.001Z,57.00
2024-01-12T20:50:08.652Z,54.30
2024-01-12T20:54:10.606Z,53.00
2024-01-12T20:58:12.808Z,48.13
2024-01-12T21:02:16.932Z,57.47
2024-01-12T21:06:20.342Z,58.60
2024-01-12T21:10:23.715Z,53.47
2024-01-12T21:14:29.718Z,53.83
2024-01-12T21:18:36.126Z,51.37
2024-01-12T21:22:42.942Z,54.67
2024-01-12T21:26:45.070Z,58.43
2024-01-12T21:30:46.780Z,55.50
2024-01-12T21:34:50.883Z,52.77
2024-01-12T21:38:55.252Z,51.37
2024-01-12T21:42:58.518Z,52.97
2024-01-12T21:47:00.428Z,51.10
2024-01-12T21:51:02.012Z,51.00
2024-01-12T21:55:06.247Z,91.50
2024-01-12T21:59:09.190Z,61.73
2024-01-12T22:03:10.959Z,52.67
2024-01-12T22:07:13.984Z,53.77
2024-01-12T22:11:15.818Z,69.23
2024-01-12T22:15:17.598Z,57.20
2024-01-12T22:19:19.544Z,49.40
2024-01-12T22:23:21.350Z,59.00
2024-01-12T22:27:22.925Z,56.33
2024-01-12T22:31:27.677Z,52.17
2024-01-12T22:35:30.057Z,51.30
2024-01-12T22:39:31.642Z,54.60
2024-01-12T22:43:33.474Z,49.67
2024-01-12T22:47:36.371Z,51.40
2024-01-12T22:51:38.174Z,62.47
2024-01-12T22:55:39.839Z,59.97
2024-01-12T22:59:43.921Z,49.83
2024-01-12T23:03:46.605Z,68.17
2024-01-12T23:07:48.441Z,52.67
2024-01-12T23:11:51.668Z,47.97
2024-01-12T23:15:53.690Z,54.57
2024-01-12T23:19:55.679Z,55.87
2024-01-12T23:23:57.511Z,50.63
2024-01-12T23:27:59.808Z,50.57
2024-01-12T23:32:01.906Z,49.50
2024-01-12T23:36:05.571Z,52.07
2024-01-12T23:40:14.763Z,47.90
2024-01-12T23:44:16.812Z,65.80
2024-01-12T23:48:27.471Z,49.33
2024-01-12T23:52:37.480Z,53.43
2024-01-12T23:56:39.812Z,46.27
